Detalii statie AGRIND TASNAD [0000197A]

Toti senzorii

Date Temperatura solului [C]Precipitatii [mm]Voltaj baterie [mV]Leaf Wetness [Min]HC Air temperature [C]HC Relative humidity [%]Punctul de roua [C]
medieminmaxsumaultimatimpmedieminmaxmediemediemin
2018-12-09 16:00:00 4 4 4.1 0 7000 7.25 7.22 7.29 83.52 4.5 4.5
2018-12-09 16:10:00 4 4 4.1 0 6922 7.27 7.24 7.31 81.94 4.3 4.3
2018-12-09 16:20:00 4.1 4.1 4.1 0 6942 7.14 7.14 7.14 82.05 4.1 4.1
2018-12-09 16:30:00 4.1 4.1 4.1 0 6932 7.27 7.24 7.3 79.47 3.8 3.8
2018-12-09 16:40:00 4.1 4 4.2 0 6942 7.01 6.83 7.2 84.14 4.4 3.8
2018-12-09 16:50:00 4.2 4.2 4.2 0 6932 6.08 5.93 6.23 97.92 5.7 5.5
2018-12-09 17:00:00 4.2 4.2 4.3 0 6922 5.79 5.76 5.82 100 5.7 5.7
2018-12-09 17:10:00 4.1 4 4.2 0 6864 5.65 5.61 5.69 100 5.6 5.6
2018-12-09 17:20:00 4.2 4.2 4.2 0 6884 5.56 5.55 5.57 100 5.5 5.5
2018-12-09 17:30:00 4.1 4 4.3 0 6884 5.47 5.44 5.51 100 5.4 5.4
2018-12-09 17:40:00 4.1 4 4.2 0 6894 5.35 5.33 5.38 100 5.3 5.3
2018-12-09 17:50:00 4.1 4 4.2 0 6884 5.45 5.26 5.64 100 5.4 5.2
2018-12-09 18:00:00 4.2 4.2 4.3 0 6894 5.19 5.18 5.21 100 5.1 5.1
2018-12-09 18:10:00 4.2 4.2 4.3 0 6854 5.12 5.12 5.13 100 5.1 5.1
2018-12-09 18:20:00 4 4 4 0 6864 5.42 4.99 5.86 100 5.3 4.9
2018-12-09 18:30:00 4.1 4 4.3 0 6864 6.56 6.37 6.76 94.27 5.6 5.3
2018-12-09 18:40:00 4.2 4.2 4.2 0 6874 6.84 6.82 6.86 89.7 5.2 5.1
2018-12-09 18:50:00 4.1 4 4.2 0 6864 6.73 6.68 6.78 90.88 5.2 5.2
2018-12-09 19:00:00 4.1 4 4.2 0 6874 6.56 6.56 6.57 92.95 5.4 5.3
2018-12-09 19:10:00 4 4 4.1 0 6834 6.51 6.47 6.56 93.22 5.3 5.3
2018-12-09 19:20:00 4.1 4 4.2 0 6854 6.63 6.61 6.66 91.65 5.2 5.2
2018-12-09 19:30:00 4.2 4.2 4.2 0 6854 6.6 6.58 6.63 92.32 5.3 5.3
2018-12-09 19:40:00 4.2 4.2 4.2 0 6854 6.43 6.36 6.5 96.26 5.7 5.6
2018-12-09 19:50:00 4 4 4 0 6854 6.36 6.32 6.4 97.97 6 6
2018-12-09 20:00:00 4.2 4.2 4.2 0 6854 6.22 6.2 6.25 99.95 6.1 6.1
2018-12-09 20:10:00 4.2 4.2 4.2 0 6816 6.14 6.12 6.17 100 6.1 6.1
2018-12-09 20:20:00 4.1 4 4.2 0 6834 6.12 6.05 6.2 100 6.1 6
2018-12-09 20:30:00 4.2 4.2 4.3 0 6834 6.06 6.05 6.08 100 6 6
2018-12-09 20:40:00 4 4 4 0 6844 5.92 5.92 5.93 100 5.9 5.9
2018-12-09 20:50:00 4.1 4 4.2 0 6834 5.93 5.92 5.94 100 5.9 5.9
2018-12-09 21:00:00 4.2 4.2 4.2 0 6844 6.13 6.06 6.2 99.8 6 6
2018-12-09 21:10:00 4.2 4.2 4.3 0 6806 6.26 6.25 6.27 98.91 6 5.9
2018-12-09 21:20:00 4.2 4.2 4.3 0 6826 6.35 6.34 6.36 97.18 5.8 5.7
2018-12-09 21:30:00 4.1 4 4.2 0 6826 6.43 6.42 6.44 95.68 5.7 5.7
2018-12-09 21:40:00 4.1 4 4.3 0 6826 6.34 6.33 6.35 96.15 5.7 5.7
2018-12-09 21:50:00 4.1 3.9 4.3 0 6834 6.24 6.24 6.25 97.36 5.8 5.8
2018-12-09 22:00:00 4.2 4.2 4.2 0 6826 6.27 6.25 6.3 97.04 5.7 5.7
2018-12-09 22:10:00 4 4 4 0 6786 6.29 6.29 6.3 97.11 5.7 5.6
2018-12-09 22:20:00 4 4 4 0 6806 6.44 6.44 6.44 96.05 5.7 5.7
2018-12-09 22:30:00 4 3.9 4.1 0 6816 6.4 6.39 6.41 96.93 5.8 5.8
2018-12-09 22:40:00 4.1 4 4.2 0 6806 6.32 6.3 6.34 97.7 5.9 5.9
2018-12-09 22:50:00 4.1 4 4.2 0 6816 6.24 6.2 6.28 97.7 5.8 5.8
2018-12-09 23:00:00 4 4 4 0 6816 6.08 6.08 6.08 98.83 5.7 5.7
2018-12-09 23:10:00 4.2 4.2 4.3 0 6766 5.83 5.73 5.93 99.86 5.7 5.7
2018-12-09 23:20:00 3.9 3.9 4 0 6796 5.67 5.61 5.73 100 5.6 5.6
2018-12-09 23:30:00 4.1 4 4.2 0 6796 5.75 5.75 5.76 100 5.7 5.7
2018-12-09 23:40:00 4.1 4 4.3 0 6806 5.96 5.88 6.04 100 5.9 5.8
2018-12-09 23:50:00 4.1 4 4.2 0 6796 6.19 6.16 6.23 99.46 6 6